Date,TemperatureHighF,TemperatureAvgF,TemperatureLowF,DewpointHighF,DewpointAvgF,DewpointLowF,HumidityHigh,HumidityAvg,HumidityLow,PressureMaxIn,PressureMinIn,WindSpeedMaxMPH,WindSpeedAvgMPH,GustSpeedMaxMPH,PrecipitationSumIn
2013-1-22,34.2,29.1,25.3,-0.5,-5.2,-10.3,29,22,15,30.16,30.08,8,5,17,0.00
2013-1-23,43.5,31.4,24.4,29.3,7.3,-6.6,65,36,23,30.18,28.63,9,4,18,0.00
2013-1-24,39.7,33.6,23.0,24.0,7.2,-2.7,62,35,18,30.17,28.67,10,3,19,0.00
2013-1-25,33.3,26.9,22.3,33.0,20.5,4.7,99,79,46,30.17,29.91,3,1,8,0.00
2013-1-26,47.7,34.9,27.9,32.8,28.7,25.6,99,79,55,30.03,29.77,6,1,10,0.15
2013-1-27,50.9,36.5,26.2,37.9,29.9,23.9,96,78,50,30.10,29.98,5,1,10,0.02
2013-1-28,61.2,48.6,37.9,49.6,42.2,36.4,95,80,51,30.02,29.89,6,1,13,0.00
2013-1-29,72.9,57.6,45.3,53.9,50.1,44.8,99,78,50,29.91,29.58,3,0,8,0.00
2013-1-30,68.9,57.1,42.1,59.3,52.3,36.6,99,85,64,29.58,29.20,17,4,28,1.29
2013-1-31,43.0,36.1,32.2,36.6,24.0,20.1,86,62,45,29.70,29.32,14,8,33,0.01
2013-2-1,40.5,26.0,16.0,31.4,11.8,4.1,93,56,33,30.05,29.61,15,5,33,0.00
2013-2-2,34.3,25.5,19.2,30.9,19.4,11.7,96,78,55,30.01,29.72,8,2,18,0.00
2013-2-3,42.8,34.4,30.6,34.9,29.0,20.7,97,81,56,29.82,29.64,12,5,29,0.04
2013-2-4,48.6,31.1,23.4,31.0,22.4,19.2,99,72,40,30.08,29.67,3,1,10,0.00
2013-2-5,56.7,47.1,0.0,39.7,36.0,28.9,99,65,49,30.09,29.91,10,4,21,0.00
2013-2-6,61.0,47.2,43.0,37.3,29.9,23.6,71,52,24,30.18,30.00,7,2,17,0.00
2013-2-7,57.0,47.2,40.1,42.2,32.3,27.8,83,57,42,30.16,29.91,8,3,17,0.00
2013-2-8,55.8,45.9,37.6,46.3,38.5,28.9,98,77,48,30.19,29.89,10,4,26,0.08
2013-2-9,40.3,39.5,38.8,24.9,23.3,21.6,57,52,47,30.23,30.19,2,1,4,0.00
2013-2-10,59.2,53.5,38.7,42.6,24.4,15.1,90,36,20,30.23,29.98,10,4,21,0.12
2013-2-11,56.3,51.0,45.3,52.8,46.7,27.4,99,86,47,30.11,29.97,12,4,27,0.01
2013-2-12,56.7,46.1,35.1,32.0,27.3,23.1,76,49,30,30.18,29.93,4,1,11,0.00
2013-2-13,44.2,42.6,32.4,43.1,41.6,32.1,99,96,95,30.33,29.91,6,3,14,0.02
2013-2-15,56.7,43.0,32.4,39.7,35.4,28.7,99,76,46,30.00,29.58,11,4,25,0.07
2013-2-16,39.2,32.8,27.7,30.5,22.4,9.0,88,68,30,29.96,29.86,12,3,24,0.00
2013-2-17,41.9,38.5,29.8,13.4,7.5,3.5,50,28,21,30.12,30.05,14,8,22,0.00
2013-3-10,72.9,60.6,46.9,36.0,32.8,29.5,65,37,22,30.07,29.91,8,2,19,0.00
2013-3-11,64.4,56.3,49.6,52.2,45.2,33.4,96,69,40,29.92,28.33,10,3,24,0.43
2013-3-12,55.2,44.2,37.9,48.1,34.5,28.5,96,71,39,29.98,29.76,8,3,17,0.08
2013-3-13,44.8,38.3,31.6,29.4,23.1,14.4,80,55,38,30.19,29.95,11,6,26,0.00
2013-3-14,47.3,36.0,24.4,20.4,16.7,12.0,69,46,26,30.26,30.12,8,4,20,0.00
2013-3-15,67.5,49.2,30.7,43.4,32.5,20.4,78,54,35,30.13,29.80,10,3,25,0.00
2013-3-16,75.2,65.3,56.8,49.9,45.9,41.9,62,50,37,29.82,29.68,16,8,33,0.00
2013-3-17,73.6,62.7,52.0,51.0,48.3,42.6,82,61,35,29.88,29.75,10,2,20,0.00
2013-3-18,61.9,51.5,47.1,51.3,47.8,43.8,99,88,62,29.83,29.69,6,1,19,1.07
2013-3-19,60.3,49.1,38.3,51.4,26.3,-0.4,99,50,10,30.02,29.73,11,5,25,0.01
2013-3-20,55.4,43.6,33.6,29.0,12.2,2.8,68,30,13,30.02,29.77,13,5,28,0.00
2013-3-21,59.5,29.1,22.8,48.4,10.0,6.8,67,45,36,29.94,29.82,11,4,24,0.00
2013-3-22,45.5,33.0,22.6,26.3,14.5,7.9,67,48,25,30.01,29.93,4,1,12,0.00
2013-3-23,48.7,40.5,38.5,38.3,26.8,21.0,75,58,45,29.97,29.72,5,0,8,0.00
2013-3-24,61.2,47.9,41.0,51.6,44.5,33.5,99,89,65,29.74,29.33,13,4,38,1.12
2013-3-25,41.2,33.8,30.2,34.4,29.2,26.6,96,83,68,29.91,29.51,16,9,33,0.00
2013-3-26,37.4,28.1,0.0,30.9,29.0,27.8,94,80,69,30.06,29.90,7,4,16,0.00
2013-3-28,59.4,42.5,39.4,48.4,26.3,23.1,67,53,46,29.93,29.54,3,0,4,1.83
2013-3-29,51.1,36.8,32.0,39.0,25.7,22.8,95,65,42,29.96,29.85,2,0,4,0.07
2013-3-30,63.7,49.8,40.1,46.1,41.9,38.5,95,76,51,29.85,29.66,5,1,14,0.00
2013-3-31,60.8,54.6,48.2,54.1,51.1,45.3,97,88,75,29.66,29.49,14,4,22,0.37
2013-4-1,63.9,52.2,39.4,50.8,42.1,30.3,99,73,36,29.69,29.53,10,4,24,0.01
2013-4-2,57.0,46.8,35.8,32.0,19.5,8.1,58,36,17,29.85,29.69,7,2,17,0.00
2013-4-3,58.8,46.4,32.9,23.1,17.3,12.2,62,33,18,29.91,29.81,6,2,15,0.00
2013-4-4,46.6,41.4,38.1,38.4,30.1,14.9,98,70,28,29.83,29.61,8,4,17,0.65
2013-4-5,65.8,47.9,38.1,45.9,38.5,31.2,99,76,29,29.70,29.59,6,2,12,0.01
2013-4-6,84.4,66.7,57.2,40.8,34.9,26.3,48,32,18,29.82,29.69,5,1,11,0.00
2013-4-7,74.8,61.8,46.2,45.3,40.5,35.1,69,47,30,29.80,29.68,11,3,29,0.00
2013-4-8,78.8,65.5,52.2,53.8,48.2,42.7,75,55,36,29.75,29.65,9,2,19,0.00
2013-4-9,83.3,69.4,54.3,57.2,53.4,48.3,84,59,39,29.83,29.67,8,2,17,0.00
2013-4-10,87.3,71.3,57.9,59.8,56.3,52.6,84,61,36,29.76,29.54,10,2,21,0.00
2013-4-11,83.1,71.5,60.6,61.1,55.4,49.5,98,60,34,29.56,29.31,10,2,24,0.32
2013-4-12,66.0,59.0,52.3,60.4,47.9,35.8,99,70,37,29.58,29.24,10,4,24,0.13
2013-4-13,74.5,58.2,45.1,42.6,37.1,27.2,78,49,18,29.71,29.58,8,3,17,0.00
2013-4-14,67.8,52.2,46.2,43.9,38.4,35.9,75,60,41,29.70,29.66,4,1,8,0.00
2013-4-15,83.3,80.1,77.0,60.5,58.8,56.8,51,48,44,30.14,30.03,8,4,11,0.00
2013-4-16,84.9,74.7,70.7,62.5,61.7,60.0,74,65,45,30.08,30.03,4,2,8,0.00
2013-4-17,70.7,64.3,61.9,63.0,61.1,59.6,97,89,74,30.21,29.97,5,2,14,0.20
2013-4-18,84.9,71.5,58.1,64.2,57.4,48.9,99,66,30,29.98,29.75,10,2,20,0.01
2013-4-19,73.6,59.4,45.9,63.1,50.1,30.2,98,73,55,29.96,29.61,12,4,26,0.46
2013-4-20,68.2,46.6,34.5,43.0,29.4,21.4,82,54,19,30.13,29.90,7,2,17,0.00
2013-4-21,70.3,54.4,41.0,35.7,31.6,27.5,66,44,22,30.11,29.96,4,2,12,0.00
2013-4-22,74.3,58.5,44.8,43.0,38.4,35.1,72,49,27,30.06,29.86,4,2,10,0.00
2013-4-23,77.7,61.1,45.7,48.9,38.9,31.8,72,45,30,29.94,29.74,4,1,11,0.00
2013-4-24,73.9,59.6,45.5,60.8,50.8,40.3,93,74,47,29.93,29.70,12,3,27,0.12
2013-4-25,68.5,52.1,37.9,40.3,34.6,24.8,87,56,21,30.06,27.76,5,1,15,0.00
2013-4-26,75.0,55.9,38.8,43.5,35.7,21.3,85,51,17,30.12,30.00,6,1,16,0.00
2013-4-27,56.8,54.8,52.7,54.8,50.1,43.5,96,85,61,30.05,29.85,3,1,9,0.14
2013-4-28,55.4,53.5,52.2,54.6,52.5,49.8,99,96,87,29.87,29.68,3,1,8,0.92
2013-4-29,78.8,61.9,51.1,57.9,54.5,50.8,99,80,43,29.76,29.67,6,1,12,0.00
2013-4-30,86.2,68.6,53.8,59.6,54.4,48.5,97,65,28,29.81,29.69,3,1,8,0.00
2013-5-1,77.4,67.5,58.5,56.9,53.7,50.1,82,63,44,29.95,29.81,6,2,14,0.00
2013-5-2,75.0,65.9,58.6,55.6,52.7,50.3,78,63,45,29.94,29.84,11,4,20,0.00
2013-5-3,71.2,60.2,54.1,53.5,51.5,46.0,88,74,42,29.87,29.74,9,3,29,0.00
2013-5-4,65.3,58.0,52.3,52.5,48.6,36.4,97,73,50,29.72,29.64,11,3,27,0.35
2013-5-5,59.9,53.0,50.4,56.9,51.4,48.6,99,94,86,29.65,29.52,4,2,10,0.87
2013-5-6,68.0,56.3,48.4,56.7,50.3,46.2,99,82,53,29.64,29.51,9,3,19,0.15
2013-5-7,71.2,58.5,47.5,55.1,50.0,46.1,96,75,48,29.69,29.60,4,2,11,0.07
2013-5-8,74.8,61.5,55.0,63.5,56.7,54.3,99,86,52,29.78,29.64,7,3,17,0.07
2013-5-9,79.7,67.1,53.6,62.3,57.0,52.8,99,74,41,29.84,29.74,7,2,16,0.00
2013-5-10,77.4,67.1,56.5,62.1,58.2,54.5,96,74,55,29.81,29.66,8,2,24,0.00
2013-5-11,75.2,65.3,56.3,64.4,58.1,50.1,96,78,54,29.70,29.58,8,3,21,0.17
2013-5-12,68.7,57.0,50.0,51.0,38.1,24.5,91,54,20,29.84,29.69,6,2,16,0.00
2013-5-13,70.2,54.4,41.4,35.7,30.3,22.2,76,43,18,29.94,29.83,7,2,19,0.00
2013-5-14,78.3,61.8,41.7,54.4,44.1,33.9,83,54,37,29.95,29.74,9,3,21,0.00
2013-5-15,85.8,71.7,61.5,58.0,55.3,54.1,78,58,38,29.85,29.75,9,5,21,0.00
2013-5-16,61.3,56.9,53.8,48.2,41.6,37.1,62,57,50,29.88,29.85,11,4,14,0.00
2013-5-17,64.4,61.8,57.2,51.1,49.1,47.1,80,64,55,29.84,29.80,12,5,21,0.02
2013-5-18,76.3,68.2,54.1,68.4,65.6,50.7,99,92,75,29.93,29.80,5,1,13,0.20
2013-5-19,84.9,70.4,64.2,70.1,66.2,62.8,99,87,60,29.95,29.88,5,1,13,0.01
2013-5-20,89.2,73.0,62.2,68.4,65.1,62.0,99,79,45,30.01,29.88,3,1,12,0.00
2013-5-21,93.9,75.6,62.4,70.8,66.3,59.8,99,76,37,29.95,29.79,15,1,33,0.11
2013-5-22,86.2,70.5,61.0,69.9,64.5,60.5,99,83,53,29.86,29.74,10,2,26,0.41
2013-5-23,81.5,68.8,63.1,65.7,61.8,54.3,99,81,47,29.89,29.76,8,2,19,0.09
2013-5-24,74.5,63.4,54.9,54.7,44.2,34.1,85,53,24,30.14,29.88,5,2,14,0.00
2013-5-25,80.1,61.8,44.4,49.3,41.3,30.3,90,52,19,30.22,30.05,4,1,12,0.00
2013-5-26,79.7,67.2,56.8,53.0,46.1,38.8,75,49,28,30.10,29.88,4,1,9,0.00
2013-5-27,88.9,71.5,55.6,60.0,55.3,50.7,86,59,36,29.93,29.78,8,2,15,0.00
2013-5-28,91.4,75.9,61.2,64.3,60.2,57.2,93,61,35,29.90,29.77,8,2,19,0.00
2013-5-29,93.7,76.8,61.3,65.9,61.8,57.3,93,63,35,29.92,29.80,4,1,13,0.00
2013-5-30,92.1,77.2,61.7,64.6,60.7,55.8,87,60,32,29.94,29.79,4,1,10,0.00
2013-5-31,90.7,78.0,64.8,65.3,61.2,8.1,82,58,10,29.88,29.75,6,1,14,0.00
2013-6-1,90.7,79.5,68.5,67.1,62.5,57.1,78,58,35,29.79,29.64,8,2,21,0.00
2013-6-2,66.0,65.3,64.9,65.7,65.0,64.7,99,99,99,29.65,29.61,2,1,4,0.44
2013-6-3,86.9,78.0,67.1,69.6,62.6,58.9,99,60,40,29.71,29.61,5,1,13,0.44
2013-6-4,90.3,74.2,60.1,64.8,60.1,56.9,95,65,34,29.77,29.69,3,0,8,0.00
2013-6-5,91.6,75.4,64.8,68.9,64.8,61.5,91,71,47,29.76,29.62,3,1,9,0.07
2013-6-6,88.2,82.5,75.7,67.2,64.6,62.0,74,56,42,29.72,29.68,3,1,5,0.00
2013-6-7,75.6,73.3,71.1,66.4,66.1,65.8,85,79,72,29.73,29.70,2,1,4,0.00
2013-6-8,71.8,70.4,69.3,67.7,66.5,66.1,90,88,84,29.74,29.70,2,1,4,0.00
2013-6-9,87.8,81.7,73.4,73.5,71.6,68.6,85,72,62,29.76,29.74,7,4,13,0.00
2013-6-10,93.4,91.1,88.0,75.1,73.2,70.3,64,56,48,29.75,29.66,6,5,12,0.00
2013-6-11,91.2,85.7,80.4,73.3,72.6,72.1,77,65,55,29.66,29.64,6,4,9,0.00
2013-6-12,80.1,79.0,77.7,72.7,72.4,71.9,84,80,77,29.64,29.62,5,3,10,0.00
2013-6-13,86.4,76.9,69.3,74.8,68.8,59.5,89,76,59,29.62,29.46,14,4,29,0.01
2013-6-14,86.7,73.2,60.6,62.0,58.0,53.6,93,62,35,29.77,29.60,3,1,9,0.00
2013-6-15,65.8,65.5,65.1,58.5,58.1,57.6,79,77,76,29.78,29.76,0,0,2,0.00
2013-6-16,87.8,79.3,69.3,68.6,66.2,64.2,92,65,46,29.77,29.71,7,1,22,0.32
2013-6-17,86.4,74.1,67.8,71.7,69.3,66.8,99,86,56,29.78,29.65,7,2,16,0.08
2013-6-18,75.9,72.2,68.5,71.0,67.6,64.6,99,86,73,29.69,29.57,6,2,17,0.64
2013-6-19,74.5,74.5,74.5,65.7,65.7,65.7,74,74,74,29.81,29.65,0,0,1,0.00
2013-6-20,74.5,67.1,0.0,65.7,65.7,65.7,74,67,74,29.81,29.80,0,0,1,0.00
2013-6-29,0.0,0.0,0.0,65.7,65.7,65.7,0,0,100,29.94,29.91,0,0,0,0.00
2013-8-17,76.3,70.9,66.9,66.0,63.1,60.3,96,78,59,30.14,30.08,2,0,5,0.02
2013-8-18,84.7,70.4,66.0,69.0,66.4,63.4,98,88,52,30.20,29.91,4,0,12,0.00
2013-8-19,84.6,73.5,67.1,73.2,69.4,66.8,99,88,61,29.91,29.82,2,0,5,0.04
2013-8-20,90.5,75.8,66.4,72.4,69.2,66.1,99,82,52,29.93,29.84,2,0,7,0.00
2013-8-21,87.6,73.9,69.6,72.9,70.6,68.7,99,90,58,29.97,29.90,1,0,4,0.00
2013-8-22,93.6,78.2,68.7,72.8,69.9,67.2,99,79,43,29.93,29.79,2,0,6,0.00
2013-8-23,91.4,72.6,67.6,73.9,69.9,64.8,99,92,50,29.91,29.77,4,0,14,0.38
2013-8-24,94.6,75.2,64.2,71.2,64.5,58.1,99,74,31,30.08,29.85,2,0,8,0.00
2013-8-25,92.3,74.6,61.9,62.9,58.8,53.2,87,61,30,30.19,30.07,2,0,8,0.00
2013-8-26,95.0,74.9,59.4,68.2,63.2,57.5,98,70,34,30.15,29.96,2,0,7,0.00
2013-8-27,93.9,76.1,65.7,71.9,67.9,63.8,94,77,45,29.99,29.87,3,1,8,0.00
2013-8-28,94.5,80.4,71.2,74.1,70.8,68.3,96,75,44,29.91,29.80,3,1,10,0.00
2013-8-29,98.6,82.0,74.5,75.6,72.0,68.4,93,74,41,29.86,29.77,3,1,8,0.00
2013-8-30,96.4,79.4,69.4,74.7,71.0,66.5,99,78,39,29.86,29.74,3,1,9,0.00
2013-8-31,97.3,82.3,70.7,76.6,72.2,67.3,99,74,42,29.81,29.67,3,1,10,0.20
2013-9-1,93.4,76.5,68.9,76.2,70.8,68.0,99,85,44,29.75,29.67,5,1,13,0.20
2013-9-2,83.1,73.7,0.0,73.8,71.2,68.5,99,92,71,29.96,29.71,3,1,8,0.00
2013-9-3,93.2,74.9,66.4,71.9,68.2,64.1,99,83,40,30.06,29.90,4,1,11,0.94
2013-9-4,92.5,74.5,61.9,67.5,63.4,59.8,99,72,35,30.16,30.05,2,0,8,0.00
2013-9-5,89.4,73.2,61.2,67.1,62.9,59.4,99,74,39,31.66,30.14,2,0,8,0.00
2013-9-6,81.7,67.5,61.5,67.2,63.7,61.3,99,89,56,30.22,30.16,3,0,8,0.00
2013-9-8,93.9,81.3,72.5,71.6,67.5,63.7,89,64,38,29.92,29.79,3,1,7,0.00
2013-9-9,97.5,87.3,75.2,71.5,68.9,66.4,85,56,40,30.01,29.93,3,1,6,0.00
2013-9-10,99.1,81.1,68.2,71.1,68.9,66.4,99,70,37,30.13,30.00,2,0,7,0.00
2013-9-11,95.7,79.4,70.9,72.6,69.8,65.8,95,75,38,30.13,29.99,3,1,8,0.00
2013-9-12,88.3,75.5,67.6,75.7,70.9,66.7,99,87,61,29.99,29.80,4,1,13,0.21
2013-9-13,67.5,67.0,66.4,67.2,66.7,65.9,99,99,99,29.84,29.79,1,0,4,0.00
2013-9-14,85.6,62.7,59.2,54.3,53.0,47.4,80,72,28,29.98,29.92,2,0,4,0.00
2013-9-15,91.2,69.1,54.1,62.2,57.3,52.2,97,70,32,30.07,29.97,2,0,7,0.00
2013-9-21,82.4,76.9,75.0,70.8,59.0,54.8,68,54,49,30.03,29.92,1,1,4,0.00
2013-9-22,86.5,73.3,60.1,57.8,54.9,51.7,84,56,32,29.95,29.88,2,0,7,0.00
2013-9-23,87.4,66.2,53.4,62.7,56.6,51.0,94,74,38,30.04,29.95,3,0,9,0.00
2013-9-24,88.7,70.9,58.1,64.7,60.5,57.7,99,73,38,30.07,29.90,2,0,6,0.00
2013-9-25,71.2,66.6,63.3,67.9,64.8,62.7,99,94,80,29.92,29.85,1,0,5,0.08
2013-9-26,88.3,70.7,63.0,65.5,62.6,57.3,99,79,39,30.02,29.89,1,0,6,0.00
2013-9-27,90.9,74.9,60.8,61.6,57.5,49.6,92,59,26,30.17,30.08,1,0,5,0.00
2013-9-28,87.8,67.8,56.1,62.6,58.2,54.7,97,75,34,30.24,30.11,2,0,6,0.00
2013-9-29,76.3,64.9,56.3,61.5,58.5,54.9,97,81,57,30.15,30.02,3,0,9,0.00
2013-9-30,81.1,64.0,57.7,63.0,59.6,57.5,99,87,47,30.09,30.01,2,0,4,0.00
2013-10-1,86.4,68.1,57.6,64.3,60.1,57.3,99,79,40,30.17,30.06,2,0,8,0.00
2013-10-2,90.7,70.5,57.7,67.2,61.8,57.5,99,77,37,30.19,30.08,2,0,5,0.00
2013-10-3,93.0,71.8,62.6,67.3,63.7,61.1,97,79,37,30.17,30.06,2,0,8,0.00
2013-10-4,91.2,73.1,60.3,68.3,63.6,60.0,99,76,38,30.19,30.10,1,0,5,0.00
2013-10-5,95.0,75.1,61.2,68.7,64.6,60.7,99,74,37,30.17,30.01,2,0,7,0.00
2013-10-6,89.8,75.0,61.9,68.5,63.2,59.6,99,71,37,30.03,29.82,3,1,10,0.01
2013-10-7,78.3,63.5,54.0,66.7,53.2,46.2,99,73,34,30.09,29.84,3,1,11,0.15
2013-10-8,81.9,62.4,49.8,50.9,48.3,44.9,91,64,32,30.16,30.08,3,1,11,0.00
2013-10-9,85.8,64.6,51.6,55.9,51.6,47.4,90,67,33,30.22,30.12,2,0,8,0.00
2013-10-10,86.0,68.8,50.9,55.4,51.0,42.7,94,58,23,30.17,30.05,2,0,8,0.00
2013-10-11,87.3,67.2,50.5,58.8,54.7,50.0,99,69,32,30.09,29.99,2,0,9,0.00
2013-10-12,84.9,67.3,56.7,61.5,57.8,54.3,96,75,41,30.13,30.01,2,0,8,2.54
2013-10-13,79.0,70.1,64.0,64.6,62.7,61.0,92,78,59,30.22,30.12,2,0,6,0.00
2013-10-14,84.2,70.3,60.1,64.4,61.2,57.8,99,76,41,30.25,30.11,2,0,8,0.00
2013-10-15,81.3,67.7,58.6,63.6,59.5,55.8,92,76,51,30.17,30.03,2,0,7,0.00
2013-10-16,74.1,65.6,61.3,62.1,60.0,58.1,94,82,61,30.07,29.97,3,1,10,0.00
2013-10-17,63.7,62.9,56.1,62.2,61.1,50.2,96,94,80,30.01,29.92,2,0,2,0.30
2013-10-18,71.1,56.5,49.3,50.5,48.1,45.1,97,76,41,30.03,29.96,2,0,4,0.00
2013-10-19,65.3,56.0,48.0,54.2,50.1,42.8,95,81,61,30.03,29.90,6,1,18,0.00
2013-10-20,75.0,51.6,38.3,45.0,40.0,28.2,99,71,18,30.10,30.02,2,0,7,0.00
2013-10-21,74.8,55.2,38.8,49.8,44.0,37.8,97,70,35,30.12,29.99,4,1,11,0.00
2013-10-22,71.1,59.0,51.3,53.1,49.9,46.1,94,73,50,30.01,29.84,3,1,9,0.00
2013-10-23,54.9,47.9,36.1,50.0,40.5,30.9,97,76,53,30.08,29.78,7,2,18,0.00
2013-10-24,56.1,44.3,35.2,40.2,36.2,31.0,91,74,50,30.22,30.07,4,1,13,0.00
2013-10-25,58.8,42.4,32.9,33.7,27.3,23.6,77,59,27,30.38,30.23,3,0,9,0.00
2013-10-26,56.5,26.0,0.0,33.4,27.9,26.0,94,69,35,30.32,30.17,4,0,16,0.00
2013-11-9,30.9,28.0,26.2,20.6,20.0,19.0,79,72,61,30.30,30.26,0,0,2,0.00
2013-11-10,26.1,24.6,23.7,20.4,19.8,19.6,85,82,79,30.26,30.25,0,0,0,0.00
2013-11-11,57.4,40.9,23.0,26.9,23.5,19.2,85,55,25,30.29,30.23,3,1,4,0.00
2013-11-12,65.5,54.1,38.7,24.3,16.7,8.9,48,25,11,30.22,30.11,3,1,7,0.00
2013-11-13,37.9,34.6,32.0,23.9,23.2,22.3,71,63,53,30.12,30.08,0,0,0,0.00
2013-11-14,34.3,33.1,32.4,25.2,24.2,23.1,73,69,64,30.11,30.08,2,0,4,0.00
2013-11-15,49.5,45.3,34.2,45.2,36.6,23.6,99,75,42,30.12,29.99,2,0,4,0.01
2013-11-16,74.5,55.0,43.9,57.0,50.3,43.6,99,86,50,30.06,29.92,2,0,7,0.00
2013-11-17,69.1,58.2,48.6,62.3,56.1,48.3,99,94,67,29.95,29.67,1,0,4,0.47
2013-11-18,69.6,59.5,46.9,63.2,43.7,27.8,99,61,25,29.99,29.66,5,2,14,0.07
2013-11-19,58.8,45.4,34.7,31.5,27.9,23.5,78,51,27,30.07,29.98,3,1,11,0.00
2013-11-20,62.8,47.8,37.0,31.1,27.8,21.1,71,48,21,30.15,30.01,5,2,17,0.00
2013-11-21,43.3,41.5,40.1,32.3,31.5,30.1,73,67,60,30.16,30.13,2,1,4,0.00
2013-11-22,47.1,46.8,46.6,46.3,46.0,45.8,97,97,97,30.04,30.04,0,0,3,0.00
2013-11-23,53.4,43.7,30.7,45.0,33.1,19.1,96,67,41,30.21,30.05,4,2,12,0.00
2013-11-24,43.9,30.7,21.7,19.9,11.1,3.6,66,46,19,30.38,30.20,4,1,12,0.00
2013-11-25,29.7,24.5,22.6,13.0,9.3,7.0,57,52,45,30.28,30.23,3,1,8,0.00
2013-11-27,27.7,26.4,24.4,20.9,19.0,17.6,77,73,71,30.10,30.05,0,0,0,0.08
2013-11-28,47.7,30.3,18.3,27.0,21.4,15.9,95,72,40,30.29,30.09,2,0,6,0.01
2013-11-29,56.5,36.2,23.2,33.4,25.2,22.0,97,69,28,30.39,30.27,3,0,8,0.00
2013-11-30,60.1,43.2,31.5,31.4,28.5,24.8,84,59,30,30.33,30.11,3,1,8,0.00
2013-12-1,61.7,44.1,27.3,37.2,32.3,25.3,94,66,36,30.12,29.83,4,0,9,0.00
2013-12-2,50.7,46.5,43.5,43.3,40.4,35.9,92,79,69,29.85,29.65,1,0,4,0.00
2013-12-3,61.3,51.4,45.5,50.2,46.4,42.3,95,84,65,29.74,29.67,2,0,6,0.01
2013-12-4,74.8,59.7,48.6,56.6,51.9,46.0,95,77,51,29.83,29.72,3,1,12,0.00
2013-12-5,75.4,64.1,54.5,63.9,58.2,50.4,99,82,58,29.88,29.77,5,1,14,0.02
2013-12-6,63.5,51.7,40.1,63.2,51.3,39.8,99,99,93,30.00,29.73,5,1,17,1.11
2013-12-7,40.5,39.2,34.5,40.0,38.8,31.6,99,98,89,30.21,29.97,4,1,9,0.05
2013-12-8,44.1,38.7,35.2,43.0,37.5,32.2,99,96,89,30.15,29.99,4,2,10,0.14
2013-12-10,43.2,32.0,22.6,29.3,25.4,9.4,89,77,53,30.08,29.91,5,1,13,4.06
2013-12-11,52.3,35.2,21.7,32.8,24.5,21.0,99,69,33,30.08,29.96,4,1,10,0.00
2013-12-12,43.9,32.4,24.1,24.4,18.2,7.8,80,58,26,30.14,30.01,4,1,10,0.00
2013-12-13,54.7,36.3,21.2,26.5,20.0,8.9,85,54,22,30.07,29.77,4,0,9,0.00
2013-12-14,48.6,44.6,22.6,48.3,38.8,8.9,99,82,50,30.54,29.46,6,2,15,4.67
2013-12-15,48.0,36.0,22.6,45.4,32.3,8.9,97,86,55,30.34,29.91,5,2,15,4.43
2013-12-16,52.2,38.7,28.2,35.1,31.2,26.7,96,76,50,30.14,30.00,5,2,13,0.00
2013-12-17,57.6,46.5,37.8,37.3,32.0,21.5,75,58,45,30.13,29.89,9,4,22,0.00
2013-12-18,50.9,37.2,27.5,25.9,21.9,17.1,80,56,28,30.24,30.11,6,2,15,0.00
2013-12-19,63.0,41.0,22.6,30.0,25.3,8.8,82,57,22,30.19,29.81,2,0,4,4.41
2013-12-20,61.5,47.5,34.2,39.4,33.1,26.8,77,59,38,29.85,29.74,2,0,8,0.00
2013-12-21,73.6,62.4,47.8,60.1,49.7,37.1,74,63,49,29.75,29.50,5,0,14,0.00
2013-12-22,73.2,60.1,55.2,62.4,57.6,55.0,99,92,65,29.75,29.51,9,1,24,1.24
2013-12-23,55.9,44.2,34.7,55.0,41.5,29.8,99,90,81,29.99,29.70,4,2,13,0.13
2013-12-24,41.5,31.2,23.0,29.8,21.4,14.4,82,67,36,30.11,29.92,5,1,12,0.00
2013-12-25,49.8,30.9,18.1,24.8,19.5,13.4,85,65,35,30.08,29.79,2,1,8,0.00
2013-12-26,54.1,35.8,25.9,30.0,25.0,21.9,89,68,33,29.92,29.79,4,1,11,0.00
2013-12-27,56.1,31.5,0.0,99.9,25.3,8.8,89,75,5,30.03,26.74,246,1,246,11.04
2013-12-28,46.9,39.5,38.3,40.6,36.9,28.4,99,91,50,29.81,29.55,4,2,10,0.21
2013-12-29,45.5,42.2,23.0,44.2,41.0,7.4,99,96,46,30.41,29.44,5,2,12,0.18
2013-12-30,42.4,38.3,34.7,42.2,35.1,30.3,99,88,77,30.17,29.98,3,1,11,0.01
2013-12-31,46.9,34.0,27.5,31.6,27.3,23.6,99,79,43,30.38,30.15,5,1,14,0.00
2014-1-1,54.1,35.3,23.9,30.9,25.6,21.7,94,72,28,30.31,30.04,2,0,8,0.00
2014-1-2,39.7,32.9,19.6,39.3,29.5,11.1,99,88,69,30.08,29.70,8,2,26,0.31